createdAt,value
2022-12-01T00:01:03.339Z,11.32
2022-12-01T00:04:09.514Z,11.06
2022-12-01T00:07:12.625Z,11.02
2022-12-01T00:10:15.875Z,10.93
2022-12-01T00:13:19.138Z,10.67
2022-12-01T00:16:22.422Z,10.86
2022-12-01T00:19:29.526Z,10.73
2022-12-01T00:22:32.871Z,10.86
2022-12-01T00:25:36.020Z,10.44
2022-12-01T00:28:39.281Z,10.54
2022-12-01T00:31:42.827Z,10.41
2022-12-01T00:34:46.716Z,10.52
2022-12-01T00:37:50.083Z,10.47
2022-12-01T00:40:53.269Z,10.40
2022-12-01T00:43:56.436Z,10.29
2022-12-01T00:46:59.700Z,10.38
2022-12-01T00:50:05.675Z,10.55
2022-12-01T00:53:11.112Z,10.41
2022-12-01T00:56:14.327Z,10.02
2022-12-01T00:59:17.661Z,10.04
2022-12-01T01:02:20.930Z,9.73
2022-12-01T01:05:24.169Z,9.86
2022-12-01T01:08:27.325Z,9.78
2022-12-01T01:11:30.490Z,9.72
2022-12-01T01:14:33.652Z,9.50
2022-12-01T01:17:36.779Z,9.55
2022-12-01T01:20:40.308Z,9.35
2022-12-01T01:23:43.838Z,9.18
2022-12-01T01:26:47.008Z,9.33
2022-12-01T01:29:50.367Z,9.54
2022-12-01T01:32:55.803Z,9.31
2022-12-01T01:36:02.651Z,9.43
2022-12-01T01:39:05.825Z,9.40
2022-12-01T01:42:14.758Z,9.20
2022-12-01T01:45:25.130Z,9.31
2022-12-01T01:48:28.705Z,8.99
2022-12-01T01:51:50.635Z,9.03
2022-12-01T01:54:55.906Z,9.21
2022-12-01T01:57:59.145Z,9.23
2022-12-01T02:01:02.369Z,9.07
2022-12-01T02:04:05.831Z,8.82
2022-12-01T02:07:10.154Z,8.42
2022-12-01T02:10:14.167Z,8.76
2022-12-01T02:13:33.552Z,8.77
2022-12-01T02:16:49.480Z,8.62
2022-12-01T02:20:36.467Z,8.48
2022-12-01T02:23:54.523Z,8.66
2022-12-01T02:27:08.600Z,8.35
2022-12-01T02:30:29.889Z,8.26
2022-12-01T02:34:11.353Z,8.42
2022-12-01T02:37:25.878Z,8.39
2022-12-01T02:40:37.183Z,8.25
2022-12-01T02:44:12.517Z,8.21
2022-12-01T02:47:17.450Z,8.05
2022-12-01T02:50:22.204Z,8.04
2022-12-01T02:53:25.560Z,8.01
2022-12-01T02:56:28.987Z,7.90
2022-12-01T02:59:32.315Z,8.04
2022-12-01T03:02:43.984Z,8.13
2022-12-01T03:05:47.200Z,8.05
2022-12-01T03:08:59.749Z,7.93
2022-12-01T03:12:13.609Z,8.04
2022-12-01T03:15:16.677Z,7.90
2022-12-01T03:18:44.122Z,7.91
2022-12-01T03:21:56.261Z,7.92
2022-12-01T03:25:01.975Z,8.07
2022-12-01T03:28:22.148Z,7.75
2022-12-01T03:31:29.835Z,7.47
2022-12-01T03:34:41.395Z,7.49
2022-12-01T03:37:55.082Z,7.40
2022-12-01T03:41:05.353Z,7.65
2022-12-01T03:44:25.921Z,7.48
2022-12-01T03:47:29.747Z,7.41
2022-12-01T03:50:37.777Z,7.48
2022-12-01T03:54:12.274Z,7.33
2022-12-01T03:57:19.657Z,7.27
2022-12-01T04:00:23.489Z,7.25
2022-12-01T04:03:27.103Z,7.50
2022-12-01T04:06:30.215Z,6.96
2022-12-01T04:09:33.416Z,7.16
2022-12-01T04:12:36.822Z,7.02
2022-12-01T04:15:40.133Z,6.97
2022-12-01T04:18:43.485Z,6.96
2022-12-01T04:21:46.626Z,7.00
2022-12-01T04:24:49.788Z,6.89
2022-12-01T04:27:52.976Z,6.95
2022-12-01T04:30:58.649Z,6.66
2022-12-01T04:34:02.214Z,6.78
2022-12-01T04:37:06.289Z,6.81
2022-12-01T04:40:09.971Z,6.87
2022-12-01T04:43:13.234Z,6.88
2022-12-01T04:46:16.632Z,6.74
2022-12-01T04:49:20.731Z,6.77
2022-12-01T04:52:23.887Z,6.96
2022-12-01T04:55:28.248Z,6.87
2022-12-01T04:58:35.159Z,6.97
2022-12-01T05:01:38.805Z,6.66
2022-12-01T05:04:41.985Z,6.65
2022-12-01T05:07:45.132Z,6.69
2022-12-01T05:10:48.391Z,6.53
2022-12-01T05:13:51.860Z,6.74
2022-12-01T05:16:56.198Z,6.75
2022-12-01T05:19:59.287Z,6.59
2022-12-01T05:23:06.419Z,6.71
2022-12-01T05:26:10.186Z,6.54
2022-12-01T05:29:14.203Z,6.62
2022-12-01T05:32:17.585Z,6.49
2022-12-01T05:35:20.735Z,6.50
2022-12-01T05:38:23.851Z,6.38
2022-12-01T05:41:27.054Z,6.56
2022-12-01T05:44:30.298Z,6.40
2022-12-01T05:47:33.563Z,6.41
2022-12-01T05:50:39.472Z,6.39
2022-12-01T05:53:43.574Z,6.49
2022-12-01T05:56:46.656Z,6.38
2022-12-01T05:59:50.113Z,6.39
2022-12-01T06:02:55.503Z,6.42
2022-12-01T06:05:58.654Z,6.58
2022-12-01T06:09:01.756Z,6.38
2022-12-01T06:12:08.097Z,6.47
2022-12-01T06:15:12.758Z,6.33
2022-12-01T06:18:15.833Z,6.32
2022-12-01T06:21:19.106Z,6.33
2022-12-01T06:24:22.429Z,6.15
2022-12-01T06:27:28.184Z,6.09
2022-12-01T06:30:31.885Z,6.38
2022-12-01T06:33:35.223Z,6.31
2022-12-01T06:36:38.375Z,6.24
2022-12-01T06:39:41.479Z,6.08
2022-12-01T06:42:44.665Z,6.06
2022-12-01T06:45:48.449Z,6.19
2022-12-01T06:48:51.956Z,5.79
2022-12-01T06:51:55.124Z,6.05
2022-12-01T06:54:58.242Z,5.88
2022-12-01T06:58:01.674Z,5.97
2022-12-01T07:01:12.895Z,5.87
2022-12-01T07:04:16.107Z,5.98
2022-12-01T07:07:19.564Z,5.96
2022-12-01T07:10:22.770Z,5.77
2022-12-01T07:13:31.529Z,5.81
2022-12-01T07:16:36.610Z,5.70
2022-12-01T07:19:39.806Z,5.65
2022-12-01T07:22:43.264Z,5.76
2022-12-01T07:25:46.454Z,5.89
2022-12-01T07:28:49.831Z,5.84
2022-12-01T07:31:55.584Z,5.64
2022-12-01T07:34:58.678Z,5.69
2022-12-01T07:38:01.907Z,5.88
2022-12-01T07:41:13.495Z,5.79
2022-12-01T07:44:16.777Z,5.67
2022-12-01T07:47:19.965Z,5.74
2022-12-01T07:50:23.114Z,5.81
2022-12-01T07:53:27.501Z,5.62
2022-12-01T07:56:30.806Z,5.37
2022-12-01T07:59:33.989Z,5.45
2022-12-01T08:02:37.369Z,5.41
2022-12-01T08:05:40.675Z,5.45
2022-12-01T08:08:43.963Z,5.25
2022-12-01T08:11:47.167Z,5.26
2022-12-01T08:14:50.522Z,5.23
2022-12-01T08:17:53.661Z,5.18
2022-12-01T08:21:00.440Z,5.14
2022-12-01T08:24:04.685Z,5.11
2022-12-01T08:27:07.855Z,5.22
2022-12-01T08:30:12.862Z,5.10
2022-12-01T08:33:16.109Z,4.93
2022-12-01T08:36:20.267Z,5.04
2022-12-01T08:39:23.519Z,4.83
2022-12-01T08:42:26.793Z,4.64
2022-12-01T08:45:30.012Z,4.87
2022-12-01T08:48:33.490Z,4.78
2022-12-01T08:51:36.694Z,4.89
2022-12-01T08:54:40.509Z,4.80
2022-12-01T08:57:44.942Z,4.89
2022-12-01T09:00:48.054Z,4.98
2022-12-01T09:03:52.238Z,4.80
2022-12-01T09:06:56.787Z,4.84
2022-12-01T09:10:01.283Z,4.84
2022-12-01T09:13:04.414Z,4.36
2022-12-01T09:16:14.372Z,4.46
2022-12-01T09:19:23.965Z,4.63
2022-12-01T09:22:28.107Z,4.55
2022-12-01T09:25:31.229Z,4.55
2022-12-01T09:28:34.705Z,4.74
2022-12-01T09:31:38.319Z,4.42
2022-12-01T09:34:41.772Z,4.72
2022-12-01T09:37:44.871Z,4.68
2022-12-01T09:40:48.034Z,4.35
2022-12-01T09:44:15.255Z,4.66
2022-12-01T09:47:22.411Z,4.66
2022-12-01T09:50:26.448Z,4.48
2022-12-01T09:53:29.755Z,4.75
2022-12-01T09:56:47.380Z,4.72
2022-12-01T09:59:52.083Z,4.54
2022-12-01T10:03:07.315Z,4.79
2022-12-01T10:06:27.429Z,4.86
2022-12-01T10:09:59.091Z,4.65
2022-12-01T10:13:04.084Z,4.58
2022-12-01T10:16:11.737Z,4.70
2022-12-01T10:19:23.024Z,4.57
2022-12-01T10:22:55.941Z,4.39
2022-12-01T10:26:00.229Z,4.81
2022-12-01T10:29:12.231Z,4.68
2022-12-01T10:32:22.160Z,4.72
2022-12-01T10:35:27.033Z,4.64
2022-12-01T10:38:36.107Z,4.61
2022-12-01T10:41:40.296Z,4.64
2022-12-01T10:44:43.992Z,4.57
2022-12-01T10:48:14.027Z,4.56
2022-12-01T10:51:18.770Z,4.58
2022-12-01T10:54:23.761Z,4.37
2022-12-01T10:57:29.002Z,4.46
2022-12-01T11:04:05.531Z,4.57
2022-12-01T11:07:16.556Z,4.67
2022-12-01T11:10:31.637Z,4.61
2022-12-01T11:13:37.883Z,4.66
2022-12-01T11:16:42.499Z,4.53
2022-12-01T11:19:45.841Z,4.58
2022-12-01T11:22:49.224Z,4.47
2022-12-01T11:26:09.657Z,4.43
2022-12-01T11:29:31.724Z,4.54
2022-12-01T11:32:37.958Z,4.26
2022-12-01T11:35:48.007Z,4.29
2022-12-01T11:38:53.707Z,4.47
2022-12-01T11:42:02.112Z,4.76
2022-12-01T11:45:10.258Z,4.84
2022-12-01T11:48:13.361Z,4.99
2022-12-01T11:51:29.691Z,4.81
2022-12-01T11:54:33.029Z,4.65
2022-12-01T11:57:36.108Z,5.20
2022-12-01T12:00:51.174Z,5.02
2022-12-01T12:04:18.614Z,4.46
2022-12-01T12:08:09.435Z,5.09
2022-12-01T12:11:47.530Z,4.71
2022-12-01T12:15:13.162Z,4.78
2022-12-01T12:18:19.505Z,4.75
2022-12-01T12:21:25.872Z,4.76
2022-12-01T12:24:43.901Z,4.60
2022-12-01T12:28:00.028Z,5.00
2022-12-01T12:31:35.771Z,4.67
2022-12-01T12:34:54.283Z,4.60
2022-12-01T12:38:41.862Z,4.27
2022-12-01T12:41:53.243Z,4.31
2022-12-01T12:45:40.888Z,4.24
2022-12-01T12:49:19.360Z,4.36
2022-12-01T12:52:39.914Z,4.26
2022-12-01T12:55:47.308Z,4.11
2022-12-01T12:58:58.168Z,4.23
2022-12-01T13:02:16.825Z,4.20
2022-12-01T13:05:32.236Z,4.17
2022-12-01T13:08:45.941Z,4.18
2022-12-01T13:12:03.007Z,4.11
2022-12-01T13:15:20.559Z,4.31
2022-12-01T13:18:23.693Z,4.28
2022-12-01T13:21:37.398Z,4.33
2022-12-01T13:24:40.957Z,4.46
2022-12-01T13:27:45.310Z,4.54
2022-12-01T13:31:03.353Z,4.55
2022-12-01T13:34:06.989Z,4.67
2022-12-01T13:37:11.063Z,4.48
2022-12-01T13:40:24.893Z,4.40
2022-12-01T13:43:28.012Z,5.04
2022-12-01T13:46:53.508Z,4.87
2022-12-01T13:49:56.652Z,4.80
2022-12-01T13:53:15.063Z,4.94
2022-12-01T13:56:18.213Z,5.03
2022-12-01T13:59:59.737Z,4.98
2022-12-01T14:03:21.410Z,5.23
2022-12-01T14:06:46.823Z,4.98
2022-12-01T14:09:54.370Z,4.86
2022-12-01T14:13:03.488Z,4.94
2022-12-01T14:16:06.919Z,4.81
2022-12-01T14:19:31.185Z,5.02
2022-12-01T14:22:43.061Z,4.94
2022-12-01T14:26:16.520Z,5.01
2022-12-01T14:29:28.982Z,5.00
2022-12-01T14:32:32.246Z,5.07
2022-12-01T14:35:35.389Z,5.04
2022-12-01T14:38:38.780Z,5.29
2022-12-01T14:42:03.980Z,5.18
2022-12-01T14:45:08.701Z,5.55
2022-12-01T14:48:29.626Z,5.52
2022-12-01T14:51:35.522Z,5.78
2022-12-01T14:54:48.814Z,6.12
2022-12-01T14:57:54.379Z,6.18
2022-12-01T15:01:00.321Z,6.18
2022-12-01T15:04:06.329Z,6.17
2022-12-01T15:07:09.503Z,6.35
2022-12-01T15:10:27.118Z,6.57
2022-12-01T15:13:55.765Z,6.60
2022-12-01T15:16:59.652Z,6.86
2022-12-01T15:20:03.229Z,6.84
2022-12-01T15:23:14.740Z,6.86
2022-12-01T15:26:23.786Z,7.19
2022-12-01T15:29:35.417Z,6.89
2022-12-01T15:32:38.851Z,7.30
2022-12-01T15:35:42.071Z,7.67
2022-12-01T15:38:49.700Z,7.80
2022-12-01T15:41:52.716Z,7.68
2022-12-01T15:45:19.636Z,7.89
2022-12-01T15:48:30.643Z,8.12
2022-12-01T15:51:33.802Z,7.75
2022-12-01T15:54:37.395Z,8.20
2022-12-01T15:57:40.571Z,8.47
2022-12-01T16:01:06.059Z,8.43
2022-12-01T16:04:24.236Z,8.61
2022-12-01T16:08:04.439Z,8.72
2022-12-01T16:11:17.142Z,8.94
2022-12-01T16:14:20.543Z,8.98
2022-12-01T16:17:24.450Z,9.24
2022-12-01T16:20:35.461Z,9.49
2022-12-01T16:23:38.744Z,9.55
2022-12-01T16:26:54.679Z,9.76
2022-12-01T16:30:06.736Z,9.81
2022-12-01T16:33:21.959Z,10.11
2022-12-01T16:36:26.936Z,10.20
2022-12-01T16:39:30.251Z,10.08
2022-12-01T16:42:33.360Z,10.01
2022-12-01T16:45:36.464Z,10.24
2022-12-01T16:48:39.569Z,10.51
2022-12-01T16:51:55.538Z,10.82
2022-12-01T16:54:59.830Z,10.40
2022-12-01T16:58:03.037Z,10.32
2022-12-01T17:01:07.267Z,10.17
2022-12-01T17:04:10.449Z,10.36
2022-12-01T17:07:13.747Z,10.70
2022-12-01T17:10:17.177Z,11.36
2022-12-01T17:13:21.462Z,11.24
2022-12-01T17:16:24.712Z,11.35
2022-12-01T17:19:28.057Z,11.73
2022-12-01T17:22:31.250Z,11.33
2022-12-01T17:25:34.657Z,11.40
2022-12-01T17:28:37.967Z,11.43
2022-12-01T17:31:42.380Z,11.60
2022-12-01T17:34:45.674Z,11.72
2022-12-01T17:37:48.777Z,12.18
2022-12-01T17:41:09.279Z,12.59
2022-12-01T17:44:12.113Z,12.22
2022-12-01T17:47:15.227Z,11.73
2022-12-01T17:50:18.553Z,12.00
2022-12-01T17:53:21.780Z,11.96
2022-12-01T17:56:24.871Z,12.48
2022-12-01T17:59:28.100Z,13.03
2022-12-01T18:02:31.254Z,13.27
2022-12-01T18:05:34.537Z,12.53
2022-12-01T18:08:38.522Z,13.18
2022-12-01T18:11:41.667Z,13.62
2022-12-01T18:14:44.849Z,12.94
2022-12-01T18:17:47.998Z,12.88
2022-12-01T18:20:51.143Z,13.99
2022-12-01T18:23:56.724Z,14.32
2022-12-01T18:27:02.494Z,14.32
2022-12-01T18:30:06.677Z,14.09
2022-12-01T18:33:09.832Z,14.18
2022-12-01T18:36:24.505Z,14.55
2022-12-01T18:39:27.630Z,14.31
2022-12-01T18:42:33.227Z,14.41
2022-12-01T18:45:41.436Z,14.23
2022-12-01T18:48:46.230Z,14.85
2022-12-01T18:51:49.436Z,14.78
2022-12-01T18:54:54.130Z,14.43
2022-12-01T18:57:57.280Z,14.69
2022-12-01T19:01:01.898Z,14.76
2022-12-01T19:04:06.391Z,14.83
2022-12-01T19:07:09.869Z,14.91
2022-12-01T19:10:12.967Z,15.24
2022-12-01T19:13:16.159Z,15.24
2022-12-01T19:16:20.363Z,14.69
2022-12-01T19:19:23.960Z,14.51
2022-12-01T19:22:29.093Z,14.55
2022-12-01T19:25:33.795Z,15.34
2022-12-01T19:28:38.155Z,15.27
2022-12-01T19:31:41.600Z,14.91
2022-12-01T19:34:44.778Z,15.81
2022-12-01T19:37:48.062Z,15.84
2022-12-01T19:40:51.239Z,15.97
2022-12-01T19:43:57.507Z,15.90
2022-12-01T19:47:00.616Z,15.49
2022-12-01T19:50:04.197Z,15.18
2022-12-01T19:53:07.363Z,15.04
2022-12-01T19:56:10.530Z,14.86
2022-12-01T19:59:13.757Z,15.40
2022-12-01T20:02:16.976Z,15.27
2022-12-01T20:05:20.097Z,15.25
2022-12-01T20:08:23.248Z,14.88
2022-12-01T20:11:27.212Z,15.50
2022-12-01T20:14:30.608Z,15.03
2022-12-01T20:17:36.807Z,15.65
2022-12-01T20:20:41.969Z,15.74
2022-12-01T20:23:47.590Z,16.23
2022-12-01T20:26:53.303Z,16.13
2022-12-01T20:29:56.412Z,16.77
2022-12-01T20:32:59.655Z,16.58
2022-12-01T20:36:02.953Z,16.42
2022-12-01T20:39:07.232Z,17.11
2022-12-01T20:42:11.118Z,17.96
2022-12-01T20:45:14.487Z,17.53
2022-12-01T20:48:17.845Z,17.60
2022-12-01T20:51:21.678Z,18.19
2022-12-01T20:54:29.582Z,17.94
2022-12-01T20:57:33.421Z,17.09
2022-12-01T21:00:39.380Z,17.65
2022-12-01T21:03:44.295Z,16.44
2022-12-01T21:06:47.507Z,16.42
2022-12-01T21:09:52.953Z,16.14
2022-12-01T21:12:59.555Z,16.49
2022-12-01T21:16:06.941Z,16.61
2022-12-01T21:19:19.316Z,16.13
2022-12-01T21:22:22.469Z,15.83
2022-12-01T21:25:25.655Z,16.38
2022-12-01T21:28:28.844Z,16.01
2022-12-01T21:31:32.901Z,15.93
2022-12-01T21:34:36.672Z,15.52
2022-12-01T21:37:39.802Z,15.68
2022-12-01T21:40:43.733Z,15.91
2022-12-01T21:43:46.876Z,15.86
2022-12-01T21:46:54.605Z,16.13
2022-12-01T21:49:59.119Z,17.00
2022-12-01T21:53:02.295Z,16.09
2022-12-01T21:56:05.925Z,16.12
2022-12-01T21:59:21.420Z,16.58
2022-12-01T22:02:51.733Z,15.42
2022-12-01T22:06:28.263Z,15.27
2022-12-01T22:09:28.056Z,16.57
2022-12-01T22:12:31.389Z,17.01
2022-12-01T22:15:41.739Z,16.72
2022-12-01T22:18:56.150Z,16.62
2022-12-01T22:22:02.246Z,15.60
2022-12-01T22:25:26.306Z,14.64
2022-12-01T22:28:29.924Z,14.56
2022-12-01T22:31:35.462Z,14.06
2022-12-01T22:34:59.441Z,14.14
2022-12-01T22:38:08.716Z,13.97
2022-12-01T22:41:17.007Z,13.96
2022-12-01T22:44:20.220Z,13.78
2022-12-01T22:47:23.372Z,13.57
2022-12-01T22:50:32.605Z,13.55
2022-12-01T22:53:35.741Z,13.52
2022-12-01T22:56:58.469Z,13.38
2022-12-01T23:00:17.640Z,13.16
2022-12-01T23:03:21.025Z,12.94
2022-12-01T23:06:48.867Z,12.93
2022-12-01T23:09:52.075Z,12.49
2022-12-01T23:12:56.576Z,11.86
2022-12-01T23:16:01.228Z,11.90
2022-12-01T23:19:04.383Z,11.72
2022-12-01T23:22:07.683Z,12.05
2022-12-01T23:25:18.857Z,12.04
2022-12-01T23:28:22.636Z,11.95
2022-12-01T23:31:27.607Z,11.81
2022-12-01T23:34:30.924Z,11.56
2022-12-01T23:37:38.210Z,11.16
2022-12-01T23:40:41.529Z,10.93
2022-12-01T23:43:46.089Z,10.73
2022-12-01T23:46:57.154Z,10.84
2022-12-01T23:50:03.601Z,10.66
2022-12-01T23:53:06.865Z,10.70
2022-12-01T23:56:13.389Z,11.05
2022-12-01T23:59:16.675Z,10.99
